Arcadia, Texas
Current Conditions -  °F | °C
As of 4:53 AM on Tuesday 21 Oct 2014 (Local Time) from KLVJ Reporting Station
Clear Clear  
Wind Chill: 63°   Ceiling: Unl
Heat Index: 63°   Visibility: 10mi
Dew Point: 58°   Wind: 5mph
Humidity: 84%   Direction: 60°ENE
Pressure: 30.02"   Gusts: NA
Location:  29.3723°N, 95.1328°W
Report Text: KLVJ 210953Z AUTO 06004KT 10SM CLR 17/14 A3002 RMK AO2 SLP164 T01720144
Loading
Personal Weather Stations






























Interactive Weather Map New forecast layout! Learn more

10-Day Weather Forecast

Advertisements
Track Severe Weather on mobile